Terminal Aerodrome Forecast
Issued by NWS Twin Cities, MN

Home | Current Version | Previous Version | Graphics & Text | Print | Product List | Glossary On
Versions: 1 2 3 4 5 6 7 8 9 10 11 12 13 14 15 16 17 18
861
FTUS43 KMPX 221001 AAA
TAFEAU
TAF AMD
KEAU 221001Z 2210/2306 12007KT 6SM -SHRA BR BKN050
     FM221200 14006KT 2SM BR OVC004
     FM221600 25007KT P6SM BKN008 OVC014
     FM222000 01005KT P6SM VCSH OVC014=

USA.gov is the U.S. government's official web portal to all federal, state and local government web resources and services.